createdAt,value
2023-04-26T00:00:10.174Z,58.10
2023-04-26T00:02:38.601Z,58.00
2023-04-26T00:05:09.413Z,58.00
2023-04-26T00:07:38.987Z,58.00
2023-04-26T00:10:09.713Z,58.00
2023-04-26T00:12:38.756Z,58.00
2023-04-26T00:15:07.987Z,58.00
2023-04-26T00:17:36.387Z,57.90
2023-04-26T00:20:08.570Z,57.90
2023-04-26T00:22:36.754Z,57.90
2023-04-26T00:25:05.215Z,57.90
2023-04-26T00:27:34.683Z,57.80
2023-04-26T00:30:03.089Z,57.80
2023-04-26T00:32:32.249Z,57.80
2023-04-26T00:35:00.376Z,57.80
2023-04-26T00:37:28.645Z,57.80
2023-04-26T00:39:57.402Z,57.80
2023-04-26T00:42:25.619Z,57.80
2023-04-26T00:44:57.553Z,57.80
2023-04-26T00:47:26.909Z,57.70
2023-04-26T00:49:55.151Z,57.70
2023-04-26T00:52:23.835Z,57.70
2023-04-26T00:54:52.093Z,57.70
2023-04-26T00:57:20.332Z,57.70
2023-04-26T00:59:48.697Z,57.60
2023-04-26T01:02:19.967Z,57.70
2023-04-26T01:04:48.176Z,57.70
2023-04-26T01:07:16.408Z,57.60
2023-04-26T01:09:45.673Z,57.60
2023-04-26T01:12:15.055Z,57.60
2023-04-26T01:14:43.898Z,57.60
2023-04-26T01:17:12.114Z,57.60
2023-04-26T01:19:49.705Z,57.60
2023-04-26T01:22:18.026Z,57.60
2023-04-26T01:24:51.582Z,57.60
2023-04-26T01:27:19.797Z,57.60
2023-04-26T01:29:49.043Z,57.60
2023-04-26T01:32:17.261Z,57.60
2023-04-26T01:34:45.542Z,57.60
2023-04-26T01:37:13.716Z,57.70
2023-04-26T01:39:41.949Z,57.70
2023-04-26T01:42:11.789Z,57.70
2023-04-26T01:44:39.864Z,57.70
2023-04-26T01:47:08.008Z,57.70
2023-04-26T01:49:36.507Z,57.70
2023-04-26T01:52:05.039Z,57.60
2023-04-26T01:54:33.317Z,57.60
2023-04-26T01:57:02.611Z,57.60
2023-04-26T01:59:32.216Z,57.60
2023-04-26T02:02:00.628Z,57.60
2023-04-26T02:04:29.317Z,57.60
2023-04-26T02:06:57.730Z,57.60
2023-04-26T02:09:25.890Z,57.60
2023-04-26T02:11:54.026Z,57.60
2023-04-26T02:14:22.163Z,57.60
2023-04-26T02:16:52.553Z,57.60
2023-04-26T02:19:21.146Z,57.60
2023-04-26T02:21:53.738Z,57.60
2023-04-26T02:24:22.185Z,57.60
2023-04-26T02:26:50.384Z,57.50
2023-04-26T02:29:19.274Z,57.50
2023-04-26T02:31:51.317Z,57.50
2023-04-26T02:34:19.532Z,57.50
2023-04-26T02:36:48.593Z,57.50
2023-04-26T02:39:16.964Z,57.50
2023-04-26T02:41:45.115Z,57.50
2023-04-26T02:44:13.258Z,57.50
2023-04-26T02:46:41.847Z,57.40
2023-04-26T02:49:11.367Z,57.40
2023-04-26T02:51:39.520Z,57.40
2023-04-26T02:54:08.151Z,57.40
2023-04-26T02:56:36.338Z,57.40
2023-04-26T02:59:04.499Z,57.40
2023-04-26T03:01:33.106Z,57.40
2023-04-26T03:04:01.405Z,57.40
2023-04-26T03:06:31.127Z,57.40
2023-04-26T03:09:00.036Z,57.30
2023-04-26T03:11:28.315Z,57.30
2023-04-26T03:13:56.490Z,57.30
2023-04-26T03:16:25.024Z,57.30
2023-04-26T03:18:54.382Z,57.30
2023-04-26T03:21:22.821Z,57.30
2023-04-26T03:23:52.400Z,57.30
2023-04-26T03:26:22.586Z,57.30
2023-04-26T03:28:50.865Z,57.30
2023-04-26T03:31:19.400Z,57.30
2023-04-26T03:33:47.613Z,57.20
2023-04-26T03:36:15.717Z,57.20
2023-04-26T03:38:44.260Z,57.20
2023-04-26T03:41:14.718Z,57.20
2023-04-26T03:43:42.818Z,57.20
2023-04-26T03:46:10.969Z,57.20
2023-04-26T03:48:39.150Z,57.20
2023-04-26T03:51:07.591Z,57.30
2023-04-26T03:53:36.135Z,57.40
2023-04-26T03:56:04.325Z,57.40
2023-04-26T03:58:36.240Z,57.40
2023-04-26T04:01:04.932Z,57.40
2023-04-26T04:03:33.173Z,57.40
2023-04-26T04:06:01.457Z,57.40
2023-04-26T04:08:30.602Z,57.40
2023-04-26T04:10:58.731Z,57.40
2023-04-26T04:13:27.348Z,57.40
2023-04-26T04:15:56.915Z,57.40
2023-04-26T04:18:25.108Z,57.30
2023-04-26T04:20:53.386Z,57.20
2023-04-26T04:23:21.517Z,57.20
2023-04-26T04:25:51.601Z,57.00
2023-04-26T04:28:19.885Z,56.90
2023-04-26T04:30:48.185Z,56.90
2023-04-26T04:33:17.940Z,56.80
2023-04-26T04:35:46.781Z,56.80
2023-04-26T04:38:14.979Z,56.70
2023-04-26T04:40:43.608Z,56.70
2023-04-26T04:43:12.314Z,56.70
2023-04-26T04:45:41.159Z,56.70
2023-04-26T04:48:09.388Z,56.80
2023-04-26T04:50:39.604Z,56.80
2023-04-26T04:53:08.938Z,56.80
2023-04-26T04:55:37.876Z,56.70
2023-04-26T04:58:06.800Z,56.80
2023-04-26T05:00:35.474Z,56.80
2023-04-26T05:03:11.476Z,56.90
2023-04-26T05:05:41.127Z,57.00
2023-04-26T05:08:09.836Z,57.10
2023-04-26T05:10:38.133Z,57.30
2023-04-26T05:13:07.201Z,57.40
2023-04-26T05:15:36.016Z,57.50
2023-04-26T05:18:04.293Z,57.60
2023-04-26T05:20:32.609Z,57.60
2023-04-26T05:23:02.818Z,57.70
2023-04-26T05:25:30.885Z,57.70
2023-04-26T05:28:12.561Z,57.70
2023-04-26T05:30:53.086Z,57.80
2023-04-26T05:33:27.896Z,57.80
2023-04-26T05:35:58.570Z,57.90
2023-04-26T05:38:28.381Z,57.90
2023-04-26T05:40:56.503Z,57.90
2023-04-26T05:43:24.674Z,57.90
2023-04-26T05:45:53.645Z,57.90
2023-04-26T05:48:22.942Z,57.80
2023-04-26T05:50:51.886Z,57.80
2023-04-26T05:53:21.121Z,57.80
2023-04-26T05:55:50.653Z,57.70
2023-04-26T05:58:18.882Z,57.70
2023-04-26T06:00:47.885Z,57.60
2023-04-26T06:03:16.497Z,57.60
2023-04-26T06:05:44.990Z,57.50
2023-04-26T06:08:13.211Z,57.50
2023-04-26T06:10:41.453Z,57.40
2023-04-26T06:13:11.027Z,57.40
2023-04-26T06:15:39.448Z,57.30
2023-04-26T06:18:07.811Z,57.20
2023-04-26T06:20:36.155Z,57.10
2023-04-26T06:23:07.586Z,57.10
2023-04-26T06:25:37.131Z,57.00
2023-04-26T06:28:05.926Z,57.00
2023-04-26T06:30:35.514Z,57.00
2023-04-26T06:33:04.578Z,57.00
2023-04-26T06:35:34.186Z,57.00
2023-04-26T06:38:03.468Z,56.90
2023-04-26T06:40:31.596Z,56.90
2023-04-26T06:42:59.817Z,56.90
2023-04-26T06:46:01.392Z,56.90
2023-04-26T06:48:29.659Z,56.90
2023-04-26T06:50:57.806Z,56.90
2023-04-26T06:53:25.951Z,56.90
2023-04-26T06:55:57.374Z,56.90
2023-04-26T06:58:25.591Z,56.90
2023-04-26T07:00:53.716Z,56.90
2023-04-26T07:03:23.658Z,56.90
2023-04-26T07:05:52.017Z,56.90
2023-04-26T07:08:20.250Z,56.80
2023-04-26T07:10:48.398Z,56.80
2023-04-26T07:13:17.023Z,56.70
2023-04-26T07:15:45.490Z,56.70
2023-04-26T07:18:13.718Z,56.80
2023-04-26T07:20:43.288Z,57.60
2023-04-26T07:23:11.456Z,57.80
2023-04-26T07:25:39.526Z,57.90
2023-04-26T07:28:08.640Z,58.20
2023-04-26T07:30:36.789Z,58.20
2023-04-26T07:33:05.139Z,58.20
2023-04-26T07:35:35.328Z,58.10
2023-04-26T07:38:05.111Z,58.00
2023-04-26T07:40:33.209Z,58.00
2023-04-26T07:43:01.335Z,58.00
2023-04-26T07:45:29.579Z,58.00
2023-04-26T07:47:58.672Z,57.80
2023-04-26T07:50:26.805Z,57.70
2023-04-26T07:52:54.955Z,57.60
2023-04-26T07:55:24.799Z,57.50
2023-04-26T07:57:53.048Z,57.50
2023-04-26T08:00:23.288Z,57.40
2023-04-26T08:02:51.753Z,57.30
2023-04-26T08:05:20.603Z,57.30
2023-04-26T08:07:48.869Z,57.20
2023-04-26T08:10:17.029Z,57.20
2023-04-26T08:12:46.540Z,57.20
2023-04-26T08:15:14.965Z,57.20
2023-04-26T08:17:43.221Z,57.10
2023-04-26T08:20:12.224Z,57.00
2023-04-26T08:22:40.900Z,56.90
2023-04-26T08:25:09.702Z,56.80
2023-04-26T08:27:38.001Z,56.80
2023-04-26T08:30:08.900Z,56.70
2023-04-26T08:32:37.025Z,56.70
2023-04-26T08:35:05.844Z,56.60
2023-04-26T08:37:34.070Z,56.50
2023-04-26T08:40:02.189Z,56.50
2023-04-26T08:42:31.167Z,56.40
2023-04-26T08:45:03.417Z,56.40
2023-04-26T08:47:43.412Z,56.40
2023-04-26T08:50:14.809Z,56.30
2023-04-26T08:52:44.445Z,56.30
2023-04-26T08:55:14.535Z,56.20
2023-04-26T08:57:44.492Z,56.20
2023-04-26T09:00:16.024Z,56.20
2023-04-26T09:02:48.665Z,56.10
2023-04-26T09:05:17.148Z,56.10
2023-04-26T09:07:46.929Z,56.10
2023-04-26T09:10:19.824Z,56.00
2023-04-26T09:12:47.948Z,56.10
2023-04-26T09:15:16.935Z,56.00
2023-04-26T09:17:46.532Z,56.00
2023-04-26T09:20:23.239Z,56.00
2023-04-26T09:22:52.192Z,55.90
2023-04-26T09:25:29.938Z,55.80
2023-04-26T09:27:58.746Z,56.10
2023-04-26T09:30:27.835Z,56.20
2023-04-26T09:32:59.354Z,56.30
2023-04-26T09:35:30.277Z,56.40
2023-04-26T09:38:04.297Z,56.40
2023-04-26T09:40:40.688Z,56.40
2023-04-26T09:43:11.616Z,56.40
2023-04-26T09:45:49.389Z,56.40
2023-04-26T09:48:22.544Z,56.40
2023-04-26T09:50:53.399Z,56.40
2023-04-26T09:53:30.435Z,56.40
2023-04-26T09:56:06.942Z,56.50
2023-04-26T09:58:35.260Z,56.40
2023-04-26T10:01:05.400Z,56.40
2023-04-26T10:03:36.099Z,56.40
2023-04-26T10:06:05.074Z,56.50
2023-04-26T10:08:33.957Z,56.60
2023-04-26T10:11:05.243Z,56.60
2023-04-26T10:13:33.931Z,56.60
2023-04-26T10:16:02.900Z,56.50
2023-04-26T10:18:31.479Z,56.00
2023-04-26T10:21:05.985Z,55.80
2023-04-26T10:23:34.782Z,55.80
2023-04-26T10:26:03.359Z,55.70
2023-04-26T10:29:01.354Z,55.70
2023-04-26T10:32:03.918Z,55.80
2023-04-26T10:34:33.865Z,55.70
2023-04-26T10:37:10.869Z,55.80
2023-04-26T10:39:39.258Z,55.90
2023-04-26T10:42:25.590Z,55.90
2023-04-26T10:44:54.809Z,56.00
2023-04-26T10:47:25.114Z,56.10
2023-04-26T10:49:53.406Z,56.10
2023-04-26T10:52:23.332Z,56.00
2023-04-26T10:54:54.307Z,56.00
2023-04-26T10:57:23.649Z,56.00
2023-04-26T11:00:31.957Z,55.90
2023-04-26T11:03:08.973Z,55.90
2023-04-26T11:05:56.007Z,55.90
2023-04-26T11:08:30.317Z,55.90
2023-04-26T11:11:06.174Z,55.90
2023-04-26T11:13:35.138Z,55.80
2023-04-26T11:16:05.789Z,55.90
2023-04-26T11:18:34.875Z,55.90
2023-04-26T11:21:03.453Z,55.90
2023-04-26T11:23:33.379Z,55.90
2023-04-26T11:26:03.356Z,55.90
2023-04-26T11:28:34.108Z,56.00
2023-04-26T11:31:04.128Z,56.00
2023-04-26T11:33:34.168Z,56.20
2023-04-26T11:36:02.614Z,56.30
2023-04-26T11:38:32.422Z,56.40
2023-04-26T11:41:03.101Z,56.50
2023-04-26T11:43:35.366Z,56.50
2023-04-26T11:46:04.807Z,56.60
2023-04-26T11:48:34.559Z,56.60
2023-04-26T11:51:05.183Z,56.50
2023-04-26T11:53:38.957Z,56.50
2023-04-26T11:56:16.194Z,56.60
2023-04-26T11:58:46.762Z,56.60
2023-04-26T12:01:22.188Z,56.50
2023-04-26T12:03:52.804Z,56.40
2023-04-26T12:06:21.776Z,56.30
2023-04-26T12:08:54.463Z,56.40
2023-04-26T12:11:22.623Z,56.40
2023-04-26T12:13:50.992Z,56.30
2023-04-26T12:16:26.121Z,56.20
2023-04-26T12:18:56.715Z,56.00
2023-04-26T12:21:30.483Z,55.90
2023-04-26T12:24:00.537Z,55.90
2023-04-26T12:26:45.415Z,55.90
2023-04-26T12:29:13.562Z,56.00
2023-04-26T12:31:43.123Z,56.00
2023-04-26T12:34:11.319Z,55.90
2023-04-26T12:36:43.253Z,55.80
2023-04-26T12:39:15.802Z,55.90
2023-04-26T12:41:45.848Z,56.00
2023-04-26T12:44:14.957Z,56.00
2023-04-26T12:46:43.266Z,56.00
2023-04-26T12:49:11.663Z,56.10
2023-04-26T12:51:40.908Z,56.20
2023-04-26T12:54:09.214Z,56.10
2023-04-26T12:56:43.679Z,56.00
2023-04-26T12:59:12.112Z,56.00
2023-04-26T13:01:40.308Z,56.00
2023-04-26T13:04:08.992Z,56.00
2023-04-26T13:06:37.808Z,56.00
2023-04-26T13:09:08.091Z,56.10
2023-04-26T13:11:38.514Z,56.10
2023-04-26T13:14:08.165Z,56.00
2023-04-26T13:16:37.306Z,55.90
2023-04-26T13:19:06.623Z,55.80
2023-04-26T13:21:35.747Z,55.70
2023-04-26T13:24:04.828Z,55.50
2023-04-26T13:26:33.078Z,55.50
2023-04-26T13:29:04.221Z,55.50
2023-04-26T13:31:33.169Z,55.40
2023-04-26T13:34:01.840Z,55.20
2023-04-26T13:36:30.574Z,55.10
2023-04-26T13:38:59.614Z,55.00
2023-04-26T13:41:33.584Z,55.00
2023-04-26T13:44:04.912Z,54.90
2023-04-26T13:46:33.836Z,55.10
2023-04-26T13:49:02.638Z,55.30
2023-04-26T13:51:32.393Z,55.50
2023-04-26T13:54:01.177Z,55.60
2023-04-26T13:56:30.236Z,55.60
2023-04-26T13:59:00.201Z,55.70
2023-04-26T14:01:31.216Z,55.80
2023-04-26T14:04:00.364Z,55.80
2023-04-26T14:06:29.508Z,56.00
2023-04-26T14:08:58.280Z,56.00
2023-04-26T14:11:27.498Z,56.00
2023-04-26T14:13:57.356Z,56.10
2023-04-26T14:16:26.798Z,56.10
2023-04-26T14:18:56.600Z,56.20
2023-04-26T14:21:28.461Z,56.30
2023-04-26T14:23:57.910Z,56.40
2023-04-26T14:26:27.353Z,56.40
2023-04-26T14:28:56.296Z,56.40
2023-04-26T14:31:26.098Z,56.50
2023-04-26T14:33:54.294Z,56.60
2023-04-26T14:36:24.340Z,56.60
2023-04-26T14:38:53.397Z,56.70
2023-04-26T14:41:23.213Z,56.70
2023-04-26T14:43:51.804Z,56.70
2023-04-26T14:46:20.656Z,56.80
2023-04-26T14:48:49.750Z,56.70
2023-04-26T14:51:18.855Z,56.80
2023-04-26T14:53:48.513Z,56.00
2023-04-26T14:56:16.711Z,55.50
2023-04-26T14:58:45.368Z,55.50
2023-04-26T15:01:14.254Z,55.80
2023-04-26T15:03:43.319Z,55.80
2023-04-26T15:06:11.599Z,55.70
2023-04-26T15:08:39.832Z,55.60
2023-04-26T15:11:09.567Z,55.60
2023-04-26T15:13:37.788Z,55.90
2023-04-26T15:16:08.001Z,56.00
2023-04-26T15:18:36.523Z,56.10
2023-04-26T15:21:05.248Z,56.30
2023-04-26T15:23:33.998Z,56.30
2023-04-26T15:26:03.460Z,56.30
2023-04-26T15:29:24.395Z,56.30
2023-04-26T15:31:53.933Z,56.30
2023-04-26T15:34:23.495Z,56.60
2023-04-26T15:36:51.768Z,56.60
2023-04-26T15:39:19.943Z,56.50
2023-04-26T15:41:48.092Z,56.60
2023-04-26T15:44:16.269Z,56.40
2023-04-26T15:46:44.508Z,56.30
2023-04-26T15:49:14.176Z,56.40
2023-04-26T15:51:42.278Z,56.40
2023-04-26T15:54:10.505Z,56.40
2023-04-26T15:56:38.814Z,56.40
2023-04-26T15:59:06.958Z,56.40
2023-04-26T16:01:35.121Z,56.30
2023-04-26T16:04:03.536Z,56.20
2023-04-26T16:06:33.504Z,56.00
2023-04-26T16:09:02.197Z,55.90
2023-04-26T16:11:30.381Z,55.90
2023-04-26T16:13:58.489Z,55.80
2023-04-26T16:16:26.729Z,55.80
2023-04-26T16:18:54.931Z,55.70
2023-04-26T16:21:23.123Z,55.70
2023-04-26T16:23:52.978Z,55.70
2023-04-26T16:26:22.133Z,55.70
2023-04-26T16:28:54.578Z,55.70
2023-04-26T16:31:23.176Z,55.70
2023-04-26T16:33:51.368Z,55.70
2023-04-26T16:36:19.531Z,55.70
2023-04-26T16:38:47.717Z,55.80
2023-04-26T16:41:17.510Z,55.80
2023-04-26T16:43:45.997Z,55.80
2023-04-26T16:46:14.232Z,55.90
2023-04-26T16:48:42.485Z,55.90
2023-04-26T16:51:10.638Z,55.90
2023-04-26T16:53:38.860Z,55.90
2023-04-26T16:56:07.681Z,55.90
2023-04-26T16:58:37.468Z,55.90
2023-04-26T17:01:06.103Z,56.00
2023-04-26T17:03:34.445Z,56.00
2023-04-26T17:06:02.652Z,56.00
2023-04-26T17:08:30.939Z,56.00
2023-04-26T17:10:59.048Z,55.90
2023-04-26T17:13:29.449Z,55.90
2023-04-26T17:15:59.084Z,55.80
2023-04-26T17:18:27.310Z,55.80
2023-04-26T17:20:56.391Z,55.80
2023-04-26T17:23:24.828Z,55.80
2023-04-26T17:25:55.158Z,55.90
2023-04-26T17:28:23.592Z,55.90
2023-04-26T17:30:52.094Z,55.90
2023-04-26T17:33:21.855Z,56.10
2023-04-26T17:35:50.171Z,56.10
2023-04-26T17:38:18.273Z,56.20
2023-04-26T17:40:46.450Z,56.20
2023-04-26T17:43:14.596Z,56.20
2023-04-26T17:45:42.806Z,56.30
2023-04-26T17:48:13.337Z,56.30
2023-04-26T17:50:43.367Z,56.30
2023-04-26T17:53:11.614Z,56.30
2023-04-26T17:55:40.616Z,56.30
2023-04-26T17:58:08.737Z,56.30
2023-04-26T18:00:36.872Z,56.30
2023-04-26T18:03:07.139Z,56.30
2023-04-26T18:05:35.456Z,56.30
2023-04-26T18:08:05.222Z,56.30
2023-04-26T18:10:33.451Z,56.40
2023-04-26T18:13:01.746Z,56.40
2023-04-26T18:15:29.896Z,56.30
2023-04-26T18:17:58.129Z,56.30
2023-04-26T18:20:27.122Z,56.40
2023-04-26T18:22:55.336Z,56.40
2023-04-26T18:25:24.883Z,56.50
2023-04-26T18:27:52.991Z,56.50
2023-04-26T18:30:21.199Z,56.50
2023-04-26T18:32:52.094Z,56.60
2023-04-26T18:35:20.205Z,56.70
2023-04-26T18:37:48.385Z,56.70
2023-04-26T18:40:16.641Z,56.70
2023-04-26T18:42:46.197Z,56.80
2023-04-26T18:45:14.592Z,56.80
2023-04-26T18:47:42.884Z,56.80
2023-04-26T18:50:11.472Z,56.80
2023-04-26T18:52:39.670Z,56.90
2023-04-26T18:55:08.334Z,56.90
2023-04-26T18:57:36.481Z,56.90
2023-04-26T19:00:08.335Z,57.00
2023-04-26T19:02:40.176Z,57.00
2023-04-26T19:05:09.703Z,57.00
2023-04-26T19:07:38.256Z,57.00
2023-04-26T19:10:07.574Z,57.00
2023-04-26T19:12:35.879Z,57.00
2023-04-26T19:15:06.503Z,57.00
2023-04-26T19:17:34.738Z,57.00
2023-04-26T19:20:02.996Z,57.00
2023-04-26T19:22:31.398Z,57.00
2023-04-26T19:24:59.533Z,56.90
2023-04-26T19:27:28.236Z,56.80
2023-04-26T19:29:56.528Z,56.80
2023-04-26T19:32:26.460Z,56.80
2023-04-26T19:34:54.679Z,56.70
2023-04-26T19:37:23.003Z,56.70
2023-04-26T19:39:51.387Z,56.70
2023-04-26T19:42:19.633Z,56.70
2023-04-26T19:44:47.737Z,56.80
2023-04-26T19:47:16.145Z,56.80
2023-04-26T19:49:45.706Z,56.80
2023-04-26T19:52:13.966Z,56.70
2023-04-26T19:54:42.241Z,56.70
2023-04-26T19:57:10.358Z,56.70
2023-04-26T19:59:38.489Z,56.70
2023-04-26T20:02:07.628Z,56.70
2023-04-26T20:04:42.241Z,56.80
2023-04-26T20:07:11.928Z,56.90
2023-04-26T20:09:40.301Z,56.90
2023-04-26T20:12:08.567Z,57.00
2023-04-26T20:14:37.485Z,57.10
2023-04-26T20:17:05.905Z,57.10
2023-04-26T20:19:34.333Z,57.10
2023-04-26T20:22:02.684Z,57.10
2023-04-26T20:24:33.214Z,57.20
2023-04-26T20:27:03.691Z,57.20
2023-04-26T20:29:32.535Z,57.20
2023-04-26T20:32:01.257Z,57.20
2023-04-26T20:34:30.341Z,57.20
2023-04-26T20:36:59.507Z,57.30
2023-04-26T20:39:29.602Z,57.20
2023-04-26T20:41:59.812Z,57.30
2023-04-26T20:44:29.276Z,57.30
2023-04-26T20:46:58.111Z,57.30
2023-04-26T20:49:27.116Z,57.30
2023-04-26T20:51:56.172Z,57.30
2023-04-26T20:54:25.037Z,57.30
2023-04-26T20:56:53.981Z,57.30
2023-04-26T20:59:25.236Z,57.30
2023-04-26T21:01:54.568Z,57.30
2023-04-26T21:04:23.557Z,57.30
2023-04-26T21:06:52.642Z,57.30
2023-04-26T21:09:21.709Z,57.30
2023-04-26T21:11:50.904Z,57.30
2023-04-26T21:14:19.500Z,57.30
2023-04-26T21:16:49.819Z,57.30
2023-04-26T21:19:18.852Z,57.30
2023-04-26T21:21:47.695Z,57.30
2023-04-26T21:24:16.383Z,57.30
2023-04-26T21:26:45.213Z,57.30
2023-04-26T21:29:13.557Z,57.30
2023-04-26T21:31:41.946Z,57.30
2023-04-26T21:34:12.850Z,57.30
2023-04-26T21:36:41.383Z,57.30
2023-04-26T21:39:10.893Z,57.30
2023-04-26T21:41:39.932Z,57.30
2023-04-26T21:44:08.613Z,57.30
2023-04-26T21:46:37.294Z,57.30
2023-04-26T21:49:05.833Z,57.30
2023-04-26T21:51:36.057Z,57.40
2023-04-26T21:54:04.862Z,57.40
2023-04-26T21:56:33.072Z,57.40
2023-04-26T21:59:02.680Z,57.40
2023-04-26T22:01:31.754Z,57.40
2023-04-26T22:04:00.782Z,57.40
2023-04-26T22:06:29.861Z,57.40
2023-04-26T22:08:59.999Z,57.40
2023-04-26T22:11:28.301Z,57.40
2023-04-26T22:13:56.486Z,57.40
2023-04-26T22:16:24.634Z,57.40
2023-04-26T22:18:52.807Z,57.40
2023-04-26T22:21:21.021Z,57.40
2023-04-26T22:23:49.378Z,57.40
2023-04-26T22:26:18.834Z,57.40
2023-04-26T22:28:46.984Z,57.40
2023-04-26T22:31:15.124Z,57.40
2023-04-26T22:33:43.528Z,57.40
2023-04-26T22:36:11.910Z,57.40
2023-04-26T22:38:40.144Z,57.30
2023-04-26T22:41:08.310Z,57.30
2023-04-26T22:43:37.827Z,57.30
2023-04-26T22:46:06.099Z,57.30
2023-04-26T22:48:34.199Z,57.30
2023-04-26T22:51:02.382Z,57.30
2023-04-26T22:53:30.805Z,57.30
2023-04-26T22:55:58.951Z,57.30
2023-04-26T22:58:27.082Z,57.30
2023-04-26T23:00:56.626Z,57.30
2023-04-26T23:03:24.887Z,57.30
2023-04-26T23:05:53.121Z,57.30
2023-04-26T23:08:21.395Z,57.30
2023-04-26T23:10:49.518Z,57.30
2023-04-26T23:13:17.659Z,57.30
2023-04-26T23:15:45.817Z,57.30
2023-04-26T23:18:16.201Z,57.30
2023-04-26T23:20:44.403Z,57.30
2023-04-26T23:23:12.491Z,57.30
2023-04-26T23:25:42.175Z,57.30
2023-04-26T23:28:10.457Z,57.30
2023-04-26T23:30:38.584Z,57.30
2023-04-26T23:33:07.256Z,57.30
2023-04-26T23:35:41.669Z,57.30
2023-04-26T23:38:09.873Z,57.20
2023-04-26T23:40:38.056Z,57.20
2023-04-26T23:43:06.332Z,57.20
2023-04-26T23:45:34.533Z,57.20
2023-04-26T23:48:02.778Z,57.20
2023-04-26T23:50:31.080Z,57.20
2023-04-26T23:53:00.569Z,57.10
2023-04-26T23:55:28.933Z,57.10
2023-04-26T23:57:57.037Z,57.10
